Terminal Aerodrome Forecast
Issued by NWS

Current Version | Previous Version | Text Only | Print | Product List | Glossary On
Versions: 1 2 3 4 5 6 7 8 9 10 11 12 13 14 15
000
FTUS42 KMLB 231700
TAFSUA
TAF
KSUA 231730Z 2318/2418 12009KT P6SM VCSH BKN035
     FM240000 VRB03KT P6SM SCT100 BKN250
     FM240300 VRB02KT P6SM SCT250
     FM241400 20006KT P6SM SCT020=

USA.gov is the U.S. government's official web portal to all federal, state and local government web resources and services.